sensor_id;sensor_type;location;lat;lon;timestamp;P1;durP1;ratioP1;P2;durP2;ratioP2
46216;SDS011;47258;59.424;13.482;2023-05-10T00:02:21;7.05;;;1.13;;
46216;SDS011;47258;59.424;13.482;2023-05-10T00:04:53;8.95;;;1.23;;
46216;SDS011;47258;59.424;13.482;2023-05-10T00:07:32;8.13;;;0.80;;
46216;SDS011;47258;59.424;13.482;2023-05-10T00:10:14;4.80;;;0.73;;
46216;SDS011;47258;59.424;13.482;2023-05-10T00:12:55;4.10;;;0.80;;
46216;SDS011;47258;59.424;13.482;2023-05-10T00:15:32;5.80;;;1.05;;
46216;SDS011;47258;59.424;13.482;2023-05-10T00:18:13;14.07;;;1.73;;
46216;SDS011;47258;59.424;13.482;2023-05-10T00:20:54;2.28;;;0.50;;
46216;SDS011;47258;59.424;13.482;2023-05-10T00:23:32;2.33;;;0.52;;
46216;SDS011;47258;59.424;13.482;2023-05-10T00:26:05;4.03;;;0.60;;
46216;SDS011;47258;59.424;13.482;2023-05-10T00:28:38;4.13;;;1.52;;
46216;SDS011;47258;59.424;13.482;2023-05-10T00:31:17;0.30;;;0.30;;
46216;SDS011;47258;59.424;13.482;2023-05-10T00:34:00;1.35;;;1.33;;
46216;SDS011;47258;59.424;13.482;2023-05-10T00:36:33;3.90;;;0.80;;
46216;SDS011;47258;59.424;13.482;2023-05-10T00:39:11;1.10;;;0.40;;
46216;SDS011;47258;59.424;13.482;2023-05-10T00:41:48;1.45;;;0.60;;
46216;SDS011;47258;59.424;13.482;2023-05-10T00:44:26;2.72;;;0.40;;
46216;SDS011;47258;59.424;13.482;2023-05-10T00:47:08;3.35;;;0.40;;
46216;SDS011;47258;59.424;13.482;2023-05-10T00:49:50;7.97;;;0.50;;
46216;SDS011;47258;59.424;13.482;2023-05-10T00:52:26;8.13;;;0.93;;
46216;SDS011;47258;59.424;13.482;2023-05-10T00:55:05;8.00;;;0.77;;
46216;SDS011;47258;59.424;13.482;2023-05-10T00:57:45;17.85;;;2.25;;
46216;SDS011;47258;59.424;13.482;2023-05-10T01:00:28;5.55;;;0.82;;
46216;SDS011;47258;59.424;13.482;2023-05-10T01:03:00;11.35;;;1.02;;
46216;SDS011;47258;59.424;13.482;2023-05-10T01:05:37;11.32;;;0.70;;
46216;SDS011;47258;59.424;13.482;2023-05-10T01:08:12;16.13;;;0.80;;
46216;SDS011;47258;59.424;13.482;2023-05-10T01:10:51;3.50;;;1.30;;
46216;SDS011;47258;59.424;13.482;2023-05-10T01:13:32;15.95;;;1.10;;
46216;SDS011;47258;59.424;13.482;2023-05-10T01:16:07;9.00;;;0.88;;
46216;SDS011;47258;59.424;13.482;2023-05-10T01:18:46;8.35;;;0.55;;
46216;SDS011;47258;59.424;13.482;2023-05-10T01:21:27;7.20;;;0.95;;
46216;SDS011;47258;59.424;13.482;2023-05-10T01:24:21;3.20;;;1.15;;
46216;SDS011;47258;59.424;13.482;2023-05-10T01:27:38;2.35;;;0.47;;
46216;SDS011;47258;59.424;13.482;2023-05-10T01:30:35;6.60;;;0.70;;
46216;SDS011;47258;59.424;13.482;2023-05-10T01:33:42;2.25;;;0.80;;
46216;SDS011;47258;59.424;13.482;2023-05-10T01:36:27;2.30;;;0.40;;
46216;SDS011;47258;59.424;13.482;2023-05-10T01:39:05;0.30;;;0.30;;
46216;SDS011;47258;59.424;13.482;2023-05-10T01:41:54;0.85;;;0.28;;
46216;SDS011;47258;59.424;13.482;2023-05-10T01:44:39;1.13;;;0.70;;
46216;SDS011;47258;59.424;13.482;2023-05-10T01:47:25;2.50;;;0.60;;
46216;SDS011;47258;59.424;13.482;2023-05-10T01:50:22;0.65;;;0.40;;
46216;SDS011;47258;59.424;13.482;2023-05-10T01:53:07;0.60;;;0.40;;
46216;SDS011;47258;59.424;13.482;2023-05-10T01:55:53;0.60;;;0.40;;
46216;SDS011;47258;59.424;13.482;2023-05-10T01:58:33;0.68;;;0.35;;
46216;SDS011;47258;59.424;13.482;2023-05-10T02:01:10;6.38;;;0.80;;
46216;SDS011;47258;59.424;13.482;2023-05-10T02:03:51;0.45;;;0.45;;
46216;SDS011;47258;59.424;13.482;2023-05-10T02:06:37;0.98;;;0.38;;
46216;SDS011;47258;59.424;13.482;2023-05-10T02:09:29;1.27;;;0.60;;
46216;SDS011;47258;59.424;13.482;2023-05-10T02:12:14;1.35;;;0.90;;
46216;SDS011;47258;59.424;13.482;2023-05-10T02:14:51;0.52;;;0.52;;
46216;SDS011;47258;59.424;13.482;2023-05-10T02:17:39;1.73;;;0.33;;
46216;SDS011;47258;59.424;13.482;2023-05-10T02:20:22;0.30;;;0.30;;
46216;SDS011;47258;59.424;13.482;2023-05-10T02:23:06;1.20;;;0.75;;
46216;SDS011;47258;59.424;13.482;2023-05-10T02:25:53;1.83;;;0.38;;
46216;SDS011;47258;59.424;13.482;2023-05-10T02:28:34;0.38;;;0.38;;
46216;SDS011;47258;59.424;13.482;2023-05-10T02:31:16;2.72;;;0.73;;
46216;SDS011;47258;59.424;13.482;2023-05-10T02:34:07;1.08;;;0.70;;
46216;SDS011;47258;59.424;13.482;2023-05-10T02:36:53;0.40;;;0.38;;
46216;SDS011;47258;59.424;13.482;2023-05-10T02:39:40;1.55;;;0.50;;
46216;SDS011;47258;59.424;13.482;2023-05-10T02:42:24;0.30;;;0.30;;
46216;SDS011;47258;59.424;13.482;2023-05-10T02:45:10;0.63;;;0.52;;
46216;SDS011;47258;59.424;13.482;2023-05-10T02:47:52;0.40;;;0.30;;
46216;SDS011;47258;59.424;13.482;2023-05-10T02:50:33;8.02;;;0.63;;
46216;SDS011;47258;59.424;13.482;2023-05-10T02:53:22;0.88;;;0.50;;
46216;SDS011;47258;59.424;13.482;2023-05-10T02:56:13;0.63;;;0.45;;
46216;SDS011;47258;59.424;13.482;2023-05-10T02:58:58;2.28;;;0.40;;
46216;SDS011;47258;59.424;13.482;2023-05-10T03:01:38;0.50;;;0.50;;
46216;SDS011;47258;59.424;13.482;2023-05-10T03:04:17;0.73;;;0.30;;
46216;SDS011;47258;59.424;13.482;2023-05-10T03:06:53;0.70;;;0.70;;
46216;SDS011;47258;59.424;13.482;2023-05-10T03:09:35;0.63;;;0.60;;
46216;SDS011;47258;59.424;13.482;2023-05-10T03:12:23;2.55;;;0.63;;
46216;SDS011;47258;59.424;13.482;2023-05-10T03:15:11;0.50;;;0.40;;
46216;SDS011;47258;59.424;13.482;2023-05-10T03:18:00;1.30;;;0.30;;
46216;SDS011;47258;59.424;13.482;2023-05-10T03:20:41;0.40;;;0.40;;
46216;SDS011;47258;59.424;13.482;2023-05-10T03:23:27;0.50;;;0.50;;
46216;SDS011;47258;59.424;13.482;2023-05-10T03:26:06;0.52;;;0.40;;
46216;SDS011;47258;59.424;13.482;2023-05-10T03:29:02;2.85;;;0.50;;
46216;SDS011;47258;59.424;13.482;2023-05-10T03:31:49;4.20;;;0.95;;
46216;SDS011;47258;59.424;13.482;2023-05-10T03:34:40;0.50;;;0.50;;
46216;SDS011;47258;59.424;13.482;2023-05-10T03:37:23;0.40;;;0.40;;
46216;SDS011;47258;59.424;13.482;2023-05-10T03:39:58;0.82;;;0.22;;
46216;SDS011;47258;59.424;13.482;2023-05-10T03:42:39;0.45;;;0.20;;
46216;SDS011;47258;59.424;13.482;2023-05-10T03:45:31;0.57;;;0.40;;
46216;SDS011;47258;59.424;13.482;2023-05-10T03:48:08;0.25;;;0.25;;
46216;SDS011;47258;59.424;13.482;2023-05-10T03:50:52;0.55;;;0.40;;
46216;SDS011;47258;59.424;13.482;2023-05-10T03:53:43;0.55;;;0.50;;
46216;SDS011;47258;59.424;13.482;2023-05-10T03:56:38;0.30;;;0.30;;
46216;SDS011;47258;59.424;13.482;2023-05-10T03:59:33;0.95;;;0.60;;
46216;SDS011;47258;59.424;13.482;2023-05-10T04:02:32;0.85;;;0.50;;
46216;SDS011;47258;59.424;13.482;2023-05-10T04:05:20;11.50;;;0.70;;
46216;SDS011;47258;59.424;13.482;2023-05-10T04:08:11;8.93;;;0.90;;
46216;SDS011;47258;59.424;13.482;2023-05-10T04:10:50;3.72;;;0.90;;
46216;SDS011;47258;59.424;13.482;2023-05-10T04:13:27;6.22;;;0.55;;
46216;SDS011;47258;59.424;13.482;2023-05-10T04:16:09;3.72;;;0.75;;
46216;SDS011;47258;59.424;13.482;2023-05-10T04:19:01;0.47;;;0.47;;
46216;SDS011;47258;59.424;13.482;2023-05-10T04:21:42;8.45;;;1.13;;
46216;SDS011;47258;59.424;13.482;2023-05-10T04:24:24;2.60;;;0.38;;
46216;SDS011;47258;59.424;13.482;2023-05-10T04:27:07;1.55;;;0.60;;
46216;SDS011;47258;59.424;13.482;2023-05-10T04:29:48;2.15;;;1.02;;
46216;SDS011;47258;59.424;13.482;2023-05-10T04:32:30;5.43;;;0.73;;
46216;SDS011;47258;59.424;13.482;2023-05-10T04:35:10;2.47;;;0.40;;
46216;SDS011;47258;59.424;13.482;2023-05-10T04:37:58;1.33;;;0.60;;
46216;SDS011;47258;59.424;13.482;2023-05-10T04:40:41;2.00;;;0.35;;
46216;SDS011;47258;59.424;13.482;2023-05-10T04:43:22;3.67;;;0.52;;
46216;SDS011;47258;59.424;13.482;2023-05-10T04:45:58;9.55;;;0.57;;
46216;SDS011;47258;59.424;13.482;2023-05-10T04:48:32;2.72;;;0.50;;
46216;SDS011;47258;59.424;13.482;2023-05-10T04:51:16;1.55;;;0.40;;
46216;SDS011;47258;59.424;13.482;2023-05-10T04:53:49;3.92;;;0.63;;
46216;SDS011;47258;59.424;13.482;2023-05-10T04:56:26;0.52;;;0.50;;
46216;SDS011;47258;59.424;13.482;2023-05-10T04:59:05;0.68;;;0.50;;
46216;SDS011;47258;59.424;13.482;2023-05-10T05:01:47;0.52;;;0.40;;
46216;SDS011;47258;59.424;13.482;2023-05-10T05:04:29;17.65;;;1.20;;
46216;SDS011;47258;59.424;13.482;2023-05-10T05:07:06;1.70;;;0.60;;
46216;SDS011;47258;59.424;13.482;2023-05-10T05:12:14;1.08;;;0.60;;
46216;SDS011;47258;59.424;13.482;2023-05-10T05:15:01;1.10;;;0.50;;
46216;SDS011;47258;59.424;13.482;2023-05-10T05:17:35;0.40;;;0.40;;
46216;SDS011;47258;59.424;13.482;2023-05-10T05:20:23;0.50;;;0.50;;
46216;SDS011;47258;59.424;13.482;2023-05-10T05:23:05;0.90;;;0.50;;
46216;SDS011;47258;59.424;13.482;2023-05-10T05:25:46;0.93;;;0.65;;
46216;SDS011;47258;59.424;13.482;2023-05-10T05:28:26;5.13;;;0.65;;
46216;SDS011;47258;59.424;13.482;2023-05-10T05:31:04;0.73;;;0.73;;
46216;SDS011;47258;59.424;13.482;2023-05-10T05:33:36;1.40;;;0.60;;
46216;SDS011;47258;59.424;13.482;2023-05-10T05:36:06;0.90;;;0.70;;
46216;SDS011;47258;59.424;13.482;2023-05-10T05:38:45;0.95;;;0.80;;
46216;SDS011;47258;59.424;13.482;2023-05-10T05:41:21;0.50;;;0.50;;
46216;SDS011;47258;59.424;13.482;2023-05-10T05:43:58;1.10;;;0.65;;
46216;SDS011;47258;59.424;13.482;2023-05-10T05:46:38;0.57;;;0.57;;
46216;SDS011;47258;59.424;13.482;2023-05-10T05:49:12;6.47;;;1.00;;
46216;SDS011;47258;59.424;13.482;2023-05-10T05:51:48;1.17;;;1.08;;
46216;SDS011;47258;59.424;13.482;2023-05-10T05:54:25;2.08;;;1.23;;
46216;SDS011;47258;59.424;13.482;2023-05-10T05:56:59;6.35;;;0.80;;
46216;SDS011;47258;59.424;13.482;2023-05-10T05:59:45;2.45;;;1.10;;
46216;SDS011;47258;59.424;13.482;2023-05-10T06:02:32;3.45;;;1.15;;
46216;SDS011;47258;59.424;13.482;2023-05-10T06:05:11;4.30;;;1.00;;
46216;SDS011;47258;59.424;13.482;2023-05-10T06:07:51;5.15;;;1.52;;
46216;SDS011;47258;59.424;13.482;2023-05-10T06:10:34;5.43;;;1.55;;
46216;SDS011;47258;59.424;13.482;2023-05-10T06:13:31;7.85;;;1.80;;
46216;SDS011;47258;59.424;13.482;2023-05-10T06:16:32;3.03;;;1.17;;
46216;SDS011;47258;59.424;13.482;2023-05-10T06:19:26;4.43;;;1.98;;
46216;SDS011;47258;59.424;13.482;2023-05-10T06:22:24;5.00;;;1.90;;
46216;SDS011;47258;59.424;13.482;2023-05-10T06:25:07;2.35;;;1.70;;
46216;SDS011;47258;59.424;13.482;2023-05-10T06:28:04;5.20;;;1.60;;
46216;SDS011;47258;59.424;13.482;2023-05-10T06:31:14;2.72;;;1.75;;
46216;SDS011;47258;59.424;13.482;2023-05-10T06:34:23;5.30;;;1.65;;
46216;SDS011;47258;59.424;13.482;2023-05-10T06:37:21;2.87;;;1.23;;
46216;SDS011;47258;59.424;13.482;2023-05-10T06:40:18;3.15;;;1.17;;
46216;SDS011;47258;59.424;13.482;2023-05-10T06:43:28;1.10;;;1.00;;
46216;SDS011;47258;59.424;13.482;2023-05-10T06:46:40;2.45;;;1.50;;
46216;SDS011;47258;59.424;13.482;2023-05-10T06:49:40;6.65;;;1.17;;
46216;SDS011;47258;59.424;13.482;2023-05-10T06:53:00;3.63;;;1.20;;
46216;SDS011;47258;59.424;13.482;2023-05-10T06:56:09;1.70;;;1.05;;
46216;SDS011;47258;59.424;13.482;2023-05-10T07:02:25;3.60;;;1.08;;
46216;SDS011;47258;59.424;13.482;2023-05-10T07:05:35;5.57;;;1.23;;
46216;SDS011;47258;59.424;13.482;2023-05-10T07:08:38;2.97;;;1.30;;
46216;SDS011;47258;59.424;13.482;2023-05-10T07:11:12;5.78;;;1.23;;
46216;SDS011;47258;59.424;13.482;2023-05-10T07:14:26;1.00;;;1.00;;
46216;SDS011;47258;59.424;13.482;2023-05-10T07:17:37;1.15;;;1.13;;
46216;SDS011;47258;59.424;13.482;2023-05-10T07:20:32;5.88;;;1.33;;
46216;SDS011;47258;59.424;13.482;2023-05-10T07:23:32;7.03;;;2.15;;
46216;SDS011;47258;59.424;13.482;2023-05-10T07:26:27;1.15;;;1.10;;
46216;SDS011;47258;59.424;13.482;2023-05-10T07:29:47;2.83;;;0.98;;
46216;SDS011;47258;59.424;13.482;2023-05-10T07:32:50;3.05;;;0.90;;
46216;SDS011;47258;59.424;13.482;2023-05-10T07:35:50;10.88;;;3.25;;
46216;SDS011;47258;59.424;13.482;2023-05-10T07:38:47;10.45;;;3.33;;
46216;SDS011;47258;59.424;13.482;2023-05-10T07:42:06;5.28;;;2.75;;
46216;SDS011;47258;59.424;13.482;2023-05-10T07:45:17;9.98;;;2.72;;
46216;SDS011;47258;59.424;13.482;2023-05-10T07:51:47;12.02;;;3.70;;
46216;SDS011;47258;59.424;13.482;2023-05-10T07:54:45;23.70;;;4.68;;
46216;SDS011;47258;59.424;13.482;2023-05-10T07:57:23;16.08;;;4.25;;
46216;SDS011;47258;59.424;13.482;2023-05-10T08:00:14;10.10;;;3.17;;
46216;SDS011;47258;59.424;13.482;2023-05-10T08:03:14;14.25;;;3.55;;
46216;SDS011;47258;59.424;13.482;2023-05-10T08:06:18;8.77;;;2.55;;
46216;SDS011;47258;59.424;13.482;2023-05-10T08:12:40;4.95;;;2.35;;
46216;SDS011;47258;59.424;13.482;2023-05-10T08:15:55;4.75;;;2.60;;
46216;SDS011;47258;59.424;13.482;2023-05-10T08:19:00;5.28;;;2.70;;
46216;SDS011;47258;59.424;13.482;2023-05-10T08:22:01;3.42;;;2.08;;
46216;SDS011;47258;59.424;13.482;2023-05-10T08:24:47;3.17;;;1.90;;
46216;SDS011;47258;59.424;13.482;2023-05-10T08:31:10;7.07;;;1.92;;
46216;SDS011;47258;59.424;13.482;2023-05-10T08:33:52;11.55;;;2.05;;
46216;SDS011;47258;59.424;13.482;2023-05-10T08:36:55;11.00;;;2.08;;
46216;SDS011;47258;59.424;13.482;2023-05-10T08:39:52;6.10;;;1.98;;
46216;SDS011;47258;59.424;13.482;2023-05-10T08:42:47;16.42;;;2.88;;
46216;SDS011;47258;59.424;13.482;2023-05-10T08:45:52;9.35;;;2.22;;
46216;SDS011;47258;59.424;13.482;2023-05-10T08:48:49;7.15;;;1.95;;
46216;SDS011;47258;59.424;13.482;2023-05-10T08:51:35;6.32;;;2.58;;
46216;SDS011;47258;59.424;13.482;2023-05-10T08:54:20;5.88;;;2.13;;
46216;SDS011;47258;59.424;13.482;2023-05-10T08:57:06;7.07;;;2.38;;
46216;SDS011;47258;59.424;13.482;2023-05-10T08:59:56;5.80;;;2.00;;
46216;SDS011;47258;59.424;13.482;2023-05-10T09:02:43;6.18;;;1.85;;
46216;SDS011;47258;59.424;13.482;2023-05-10T09:05:27;37.95;;;3.88;;
46216;SDS011;47258;59.424;13.482;2023-05-10T09:08:00;14.68;;;3.17;;
46216;SDS011;47258;59.424;13.482;2023-05-10T09:10:46;8.68;;;1.98;;
46216;SDS011;47258;59.424;13.482;2023-05-10T09:13:21;7.20;;;2.22;;
46216;SDS011;47258;59.424;13.482;2023-05-10T09:16:08;10.73;;;2.47;;
46216;SDS011;47258;59.424;13.482;2023-05-10T09:18:42;1.95;;;1.55;;
46216;SDS011;47258;59.424;13.482;2023-05-10T09:21:15;5.55;;;2.28;;
46216;SDS011;47258;59.424;13.482;2023-05-10T09:24:00;2.50;;;2.13;;
46216;SDS011;47258;59.424;13.482;2023-05-10T09:26:39;10.30;;;2.50;;
46216;SDS011;47258;59.424;13.482;2023-05-10T09:29:19;4.18;;;1.70;;
46216;SDS011;47258;59.424;13.482;2023-05-10T09:31:51;8.93;;;2.65;;
46216;SDS011;47258;59.424;13.482;2023-05-10T09:34:29;2.97;;;2.05;;
46216;SDS011;47258;59.424;13.482;2023-05-10T09:37:06;4.68;;;1.95;;
46216;SDS011;47258;59.424;13.482;2023-05-10T09:39:58;27.00;;;3.30;;
46216;SDS011;47258;59.424;13.482;2023-05-10T09:42:36;12.80;;;2.72;;
46216;SDS011;47258;59.424;13.482;2023-05-10T09:45:05;9.73;;;2.35;;
46216;SDS011;47258;59.424;13.482;2023-05-10T09:47:35;4.68;;;2.13;;
46216;SDS011;47258;59.424;13.482;2023-05-10T09:50:11;6.88;;;2.50;;
46216;SDS011;47258;59.424;13.482;2023-05-10T09:52:49;7.72;;;2.25;;
46216;SDS011;47258;59.424;13.482;2023-05-10T09:55:44;2.13;;;1.70;;
46216;SDS011;47258;59.424;13.482;2023-05-10T09:58:22;5.30;;;1.88;;
46216;SDS011;47258;59.424;13.482;2023-05-10T10:00:53;1.75;;;1.58;;
46216;SDS011;47258;59.424;13.482;2023-05-10T10:03:24;7.18;;;2.70;;
46216;SDS011;47258;59.424;13.482;2023-05-10T10:06:04;5.53;;;3.05;;
46216;SDS011;47258;59.424;13.482;2023-05-10T10:08:36;5.97;;;2.45;;
46216;SDS011;47258;59.424;13.482;2023-05-10T10:11:08;7.32;;;2.20;;
46216;SDS011;47258;59.424;13.482;2023-05-10T10:13:45;3.55;;;2.13;;
46216;SDS011;47258;59.424;13.482;2023-05-10T10:16:16;15.90;;;3.45;;
46216;SDS011;47258;59.424;13.482;2023-05-10T10:18:52;10.13;;;2.97;;
46216;SDS011;47258;59.424;13.482;2023-05-10T10:21:28;8.55;;;2.10;;
46216;SDS011;47258;59.424;13.482;2023-05-10T10:23:59;8.15;;;2.60;;
46216;SDS011;47258;59.424;13.482;2023-05-10T10:26:34;8.05;;;2.72;;
46216;SDS011;47258;59.424;13.482;2023-05-10T10:29:07;4.65;;;2.03;;
46216;SDS011;47258;59.424;13.482;2023-05-10T10:31:47;5.72;;;2.55;;
46216;SDS011;47258;59.424;13.482;2023-05-10T10:34:27;10.35;;;2.33;;
46216;SDS011;47258;59.424;13.482;2023-05-10T10:37:09;4.82;;;2.28;;
46216;SDS011;47258;59.424;13.482;2023-05-10T10:39:46;6.80;;;1.70;;
46216;SDS011;47258;59.424;13.482;2023-05-10T10:45:21;7.18;;;2.75;;
46216;SDS011;47258;59.424;13.482;2023-05-10T10:50:59;3.60;;;1.95;;
46216;SDS011;47258;59.424;13.482;2023-05-10T10:53:39;14.38;;;3.80;;
46216;SDS011;47258;59.424;13.482;2023-05-10T10:56:15;17.40;;;2.25;;
46216;SDS011;47258;59.424;13.482;2023-05-10T11:01:35;14.38;;;2.42;;
46216;SDS011;47258;59.424;13.482;2023-05-10T11:04:24;11.93;;;2.22;;
46216;SDS011;47258;59.424;13.482;2023-05-10T11:07:43;9.45;;;3.03;;
46216;SDS011;47258;59.424;13.482;2023-05-10T11:11:02;13.68;;;2.03;;
46216;SDS011;47258;59.424;13.482;2023-05-10T11:13:52;12.57;;;2.70;;
46216;SDS011;47258;59.424;13.482;2023-05-10T11:16:46;6.85;;;2.00;;
46216;SDS011;47258;59.424;13.482;2023-05-10T11:19:29;12.32;;;2.33;;
46216;SDS011;47258;59.424;13.482;2023-05-10T11:22:54;32.30;;;2.67;;
46216;SDS011;47258;59.424;13.482;2023-05-10T11:26:13;20.52;;;2.33;;
46216;SDS011;47258;59.424;13.482;2023-05-10T11:29:05;11.60;;;2.67;;
46216;SDS011;47258;59.424;13.482;2023-05-10T11:32:04;17.65;;;2.72;;
46216;SDS011;47258;59.424;13.482;2023-05-10T11:34:38;3.78;;;1.77;;
46216;SDS011;47258;59.424;13.482;2023-05-10T11:37:35;8.27;;;2.85;;
46216;SDS011;47258;59.424;13.482;2023-05-10T11:40:41;8.55;;;2.17;;
46216;SDS011;47258;59.424;13.482;2023-05-10T11:43:40;3.03;;;1.63;;
46216;SDS011;47258;59.424;13.482;2023-05-10T11:46:20;1.85;;;1.75;;
46216;SDS011;47258;59.424;13.482;2023-05-10T11:49:06;7.78;;;2.33;;
46216;SDS011;47258;59.424;13.482;2023-05-10T11:52:09;3.58;;;2.00;;
46216;SDS011;47258;59.424;13.482;2023-05-10T11:54:46;4.75;;;2.92;;
46216;SDS011;47258;59.424;13.482;2023-05-10T11:57:33;9.23;;;2.00;;
46216;SDS011;47258;59.424;13.482;2023-05-10T12:00:25;8.48;;;2.13;;
46216;SDS011;47258;59.424;13.482;2023-05-10T12:03:13;4.68;;;1.92;;
46216;SDS011;47258;59.424;13.482;2023-05-10T12:05:55;2.60;;;2.22;;
46216;SDS011;47258;59.424;13.482;2023-05-10T12:08:44;4.20;;;1.88;;
46216;SDS011;47258;59.424;13.482;2023-05-10T12:11:24;4.43;;;2.10;;
46216;SDS011;47258;59.424;13.482;2023-05-10T12:14:04;3.28;;;1.73;;
46216;SDS011;47258;59.424;13.482;2023-05-10T12:16:51;2.67;;;1.63;;
46216;SDS011;47258;59.424;13.482;2023-05-10T12:19:38;2.58;;;1.98;;
46216;SDS011;47258;59.424;13.482;2023-05-10T12:22:16;4.30;;;2.17;;
46216;SDS011;47258;59.424;13.482;2023-05-10T12:24:55;4.28;;;2.00;;
46216;SDS011;47258;59.424;13.482;2023-05-10T12:27:43;4.93;;;1.80;;
46216;SDS011;47258;59.424;13.482;2023-05-10T12:30:27;2.50;;;1.60;;
46216;SDS011;47258;59.424;13.482;2023-05-10T12:33:09;2.47;;;1.30;;
46216;SDS011;47258;59.424;13.482;2023-05-10T12:35:48;4.57;;;1.55;;
46216;SDS011;47258;59.424;13.482;2023-05-10T12:38:42;3.40;;;1.33;;
46216;SDS011;47258;59.424;13.482;2023-05-10T12:41:23;5.65;;;1.55;;
46216;SDS011;47258;59.424;13.482;2023-05-10T12:44:04;9.48;;;2.88;;
46216;SDS011;47258;59.424;13.482;2023-05-10T12:46:50;16.30;;;2.20;;
46216;SDS011;47258;59.424;13.482;2023-05-10T12:49:35;4.90;;;1.90;;
46216;SDS011;47258;59.424;13.482;2023-05-10T12:52:08;2.58;;;1.60;;
46216;SDS011;47258;59.424;13.482;2023-05-10T12:55:02;4.95;;;1.48;;
46216;SDS011;47258;59.424;13.482;2023-05-10T12:57:50;6.13;;;2.78;;
46216;SDS011;47258;59.424;13.482;2023-05-10T13:00:34;4.68;;;1.10;;
46216;SDS011;47258;59.424;13.482;2023-05-10T13:03:12;2.55;;;1.50;;
46216;SDS011;47258;59.424;13.482;2023-05-10T13:06:03;1.83;;;1.23;;
46216;SDS011;47258;59.424;13.482;2023-05-10T13:08:55;3.80;;;1.70;;
46216;SDS011;47258;59.424;13.482;2023-05-10T13:11:32;3.17;;;1.83;;
46216;SDS011;47258;59.424;13.482;2023-05-10T13:14:13;4.38;;;1.60;;
46216;SDS011;47258;59.424;13.482;2023-05-10T13:17:03;4.50;;;1.27;;
46216;SDS011;47258;59.424;13.482;2023-05-10T13:19:46;2.67;;;1.65;;
46216;SDS011;47258;59.424;13.482;2023-05-10T13:22:38;5.05;;;1.70;;
46216;SDS011;47258;59.424;13.482;2023-05-10T13:25:23;3.67;;;1.67;;
46216;SDS011;47258;59.424;13.482;2023-05-10T13:28:04;8.98;;;2.28;;
46216;SDS011;47258;59.424;13.482;2023-05-10T13:30:47;2.80;;;1.00;;
46216;SDS011;47258;59.424;13.482;2023-05-10T13:33:39;7.25;;;1.50;;
46216;SDS011;47258;59.424;13.482;2023-05-10T13:36:29;5.13;;;1.25;;
46216;SDS011;47258;59.424;13.482;2023-05-10T13:39:17;13.57;;;1.88;;
46216;SDS011;47258;59.424;13.482;2023-05-10T13:42:10;4.13;;;1.50;;
46216;SDS011;47258;59.424;13.482;2023-05-10T13:44:50;7.15;;;1.95;;
46216;SDS011;47258;59.424;13.482;2023-05-10T13:47:43;12.45;;;1.55;;
46216;SDS011;47258;59.424;13.482;2023-05-10T13:50:30;3.78;;;1.73;;
46216;SDS011;47258;59.424;13.482;2023-05-10T13:53:31;2.10;;;1.08;;
46216;SDS011;47258;59.424;13.482;2023-05-10T13:56:35;13.43;;;2.00;;
46216;SDS011;47258;59.424;13.482;2023-05-10T13:59:33;5.32;;;1.27;;
46216;SDS011;47258;59.424;13.482;2023-05-10T14:02:26;6.78;;;1.00;;
46216;SDS011;47258;59.424;13.482;2023-05-10T14:05:08;11.27;;;1.83;;
46216;SDS011;47258;59.424;13.482;2023-05-10T14:07:53;11.60;;;1.70;;
46216;SDS011;47258;59.424;13.482;2023-05-10T14:10:39;21.70;;;2.37;;
46216;SDS011;47258;59.424;13.482;2023-05-10T14:13:29;17.65;;;1.83;;
46216;SDS011;47258;59.424;13.482;2023-05-10T14:16:10;22.50;;;3.00;;
46216;SDS011;47258;59.424;13.482;2023-05-10T14:18:56;12.10;;;1.77;;
46216;SDS011;47258;59.424;13.482;2023-05-10T14:21:38;13.75;;;2.08;;
46216;SDS011;47258;59.424;13.482;2023-05-10T14:24:21;9.43;;;2.05;;
46216;SDS011;47258;59.424;13.482;2023-05-10T14:27:05;11.98;;;2.08;;
46216;SDS011;47258;59.424;13.482;2023-05-10T14:29:48;7.75;;;2.13;;
46216;SDS011;47258;59.424;13.482;2023-05-10T14:32:26;10.55;;;1.85;;
46216;SDS011;47258;59.424;13.482;2023-05-10T14:35:04;14.95;;;2.33;;
46216;SDS011;47258;59.424;13.482;2023-05-10T14:37:49;3.03;;;1.65;;
46216;SDS011;47258;59.424;13.482;2023-05-10T14:40:29;3.15;;;1.52;;
46216;SDS011;47258;59.424;13.482;2023-05-10T14:43:23;2.80;;;1.33;;
46216;SDS011;47258;59.424;13.482;2023-05-10T14:46:10;9.38;;;1.70;;
46216;SDS011;47258;59.424;13.482;2023-05-10T14:48:55;4.03;;;2.00;;
46216;SDS011;47258;59.424;13.482;2023-05-10T14:51:32;7.20;;;2.90;;
46216;SDS011;47258;59.424;13.482;2023-05-10T14:54:08;14.73;;;2.03;;
46216;SDS011;47258;59.424;13.482;2023-05-10T14:56:42;2.83;;;1.73;;
46216;SDS011;47258;59.424;13.482;2023-05-10T14:59:18;5.40;;;2.22;;
46216;SDS011;47258;59.424;13.482;2023-05-10T15:01:59;3.40;;;2.00;;
46216;SDS011;47258;59.424;13.482;2023-05-10T15:04:39;3.95;;;2.55;;
46216;SDS011;47258;59.424;13.482;2023-05-10T15:07:16;2.20;;;1.80;;
46216;SDS011;47258;59.424;13.482;2023-05-10T15:09:53;3.70;;;2.45;;
46216;SDS011;47258;59.424;13.482;2023-05-10T15:12:28;2.72;;;1.88;;
46216;SDS011;47258;59.424;13.482;2023-05-10T15:15:01;5.97;;;2.70;;
46216;SDS011;47258;59.424;13.482;2023-05-10T15:17:39;1.80;;;1.70;;
46216;SDS011;47258;59.424;13.482;2023-05-10T15:20:12;3.35;;;1.50;;
46216;SDS011;47258;59.424;13.482;2023-05-10T15:22:48;5.25;;;2.35;;
46216;SDS011;47258;59.424;13.482;2023-05-10T15:25:19;4.75;;;2.30;;
46216;SDS011;47258;59.424;13.482;2023-05-10T15:27:55;5.43;;;1.92;;
46216;SDS011;47258;59.424;13.482;2023-05-10T15:30:28;2.75;;;1.67;;
46216;SDS011;47258;59.424;13.482;2023-05-10T15:33:03;2.08;;;1.67;;
46216;SDS011;47258;59.424;13.482;2023-05-10T15:35:42;2.15;;;1.70;;
46216;SDS011;47258;59.424;13.482;2023-05-10T15:38:14;1.58;;;1.30;;
46216;SDS011;47258;59.424;13.482;2023-05-10T15:40:45;2.88;;;1.70;;
46216;SDS011;47258;59.424;13.482;2023-05-10T15:43:22;2.83;;;1.95;;
46216;SDS011;47258;59.424;13.482;2023-05-10T15:45:52;1.63;;;1.42;;
46216;SDS011;47258;59.424;13.482;2023-05-10T15:48:30;3.50;;;1.58;;
46216;SDS011;47258;59.424;13.482;2023-05-10T15:51:05;2.95;;;1.85;;
46216;SDS011;47258;59.424;13.482;2023-05-10T15:53:40;3.95;;;1.40;;
46216;SDS011;47258;59.424;13.482;2023-05-10T15:56:13;4.22;;;1.48;;
46216;SDS011;47258;59.424;13.482;2023-05-10T15:58:45;2.63;;;1.77;;
46216;SDS011;47258;59.424;13.482;2023-05-10T16:01:18;10.85;;;2.50;;
46216;SDS011;47258;59.424;13.482;2023-05-10T16:03:52;4.00;;;2.42;;
46216;SDS011;47258;59.424;13.482;2023-05-10T16:06:26;11.05;;;2.60;;
46216;SDS011;47258;59.424;13.482;2023-05-10T16:08:57;3.08;;;1.45;;
46216;SDS011;47258;59.424;13.482;2023-05-10T16:11:30;5.97;;;1.85;;
46216;SDS011;47258;59.424;13.482;2023-05-10T16:14:00;3.53;;;1.67;;
46216;SDS011;47258;59.424;13.482;2023-05-10T16:16:32;5.25;;;1.70;;
46216;SDS011;47258;59.424;13.482;2023-05-10T16:19:05;3.88;;;2.13;;
46216;SDS011;47258;59.424;13.482;2023-05-10T16:21:36;2.47;;;1.35;;
46216;SDS011;47258;59.424;13.482;2023-05-10T16:24:12;4.38;;;2.00;;
46216;SDS011;47258;59.424;13.482;2023-05-10T16:26:48;7.05;;;2.08;;
46216;SDS011;47258;59.424;13.482;2023-05-10T16:29:21;1.83;;;1.58;;
46216;SDS011;47258;59.424;13.482;2023-05-10T16:31:53;2.35;;;1.50;;
46216;SDS011;47258;59.424;13.482;2023-05-10T16:34:24;5.10;;;2.17;;
46216;SDS011;47258;59.424;13.482;2023-05-10T16:36:55;3.20;;;1.63;;
46216;SDS011;47258;59.424;13.482;2023-05-10T16:39:29;4.30;;;1.30;;
46216;SDS011;47258;59.424;13.482;2023-05-10T16:42:00;6.07;;;1.73;;